CES6419 ZSNJ-ZUCK
Flight info
| Callsign | CES6419 |
|---|---|
| Flight time | 2h 1m |
| Altitude | 34100 |
| Route | ESBAG R343 MADUK W51 LEGIV W164 ADGOL W50 XSH W80 IRPOG |
| Aircraft | A20N/M-SDE2E3FGHIRWXY/LB1 |
Departure
| Time | 2026-04-28 09:26 |
|---|---|
| Airport | Nanjing Lukou International Airport (ZSNJ) |
Arrival
| Time | 2026-04-28 11:27 |
|---|---|
| Airport | Chongqing Jiangbei International Airport (ZUCK) |
| Time | Latitude | Longitude | Altitude | Speed | Heading |
|---|---|---|---|---|---|
| 2026-04-28 08:33 | 31.73042 | 118.87005 | 56 ft | 0 kts | 327° |
| 2026-04-28 09:17 | 31.73031 | 118.87013 | 56 ft | 2 kts | 327° |
| 2026-04-28 09:18 | 31.73018 | 118.87023 | 56 ft | 2 kts | 327° |
| 2026-04-28 09:18 | 31.73005 | 118.87032 | 56 ft | 2 kts | 328° |
| 2026-04-28 09:18 | 31.72993 | 118.87042 | 56 ft | 2 kts | 327° |
| 2026-04-28 09:18 | 31.72979 | 118.87050 | 56 ft | 2 kts | 349° |
| 2026-04-28 09:19 | 31.72964 | 118.87051 | 56 ft | 2 kts | 7° |
| 2026-04-28 09:19 | 31.72949 | 118.87046 | 56 ft | 2 kts | 27° |
| 2026-04-28 09:19 | 31.72936 | 118.87035 | 56 ft | 2 kts | 46° |
| 2026-04-28 09:19 | 31.72931 | 118.87028 | 56 ft | 1 kts | 58° |
| 2026-04-28 09:20 | 31.72928 | 118.87022 | 56 ft | 0 kts | 59° |
| 2026-04-28 09:22 | 31.72933 | 118.87031 | 55 ft | 1 kts | 58° |
| 2026-04-28 09:22 | 31.72944 | 118.87052 | 55 ft | 4 kts | 58° |
| 2026-04-28 09:22 | 31.72964 | 118.87089 | 55 ft | 6 kts | 58° |
| 2026-04-28 09:22 | 31.72991 | 118.87140 | 55 ft | 8 kts | 58° |
| 2026-04-28 09:23 | 31.73028 | 118.87208 | 55 ft | 10 kts | 58° |
| 2026-04-28 09:23 | 31.73071 | 118.87288 | 55 ft | 12 kts | 58° |
| 2026-04-28 09:23 | 31.73083 | 118.87384 | 55 ft | 13 kts | 136° |
| 2026-04-28 09:23 | 31.73076 | 118.87478 | 55 ft | 13 kts | 65° |
| 2026-04-28 09:24 | 31.73128 | 118.87578 | 55 ft | 14 kts | 58° |
| 2026-04-28 09:24 | 31.73184 | 118.87682 | 56 ft | 14 kts | 58° |
| 2026-04-28 09:24 | 31.73206 | 118.87788 | 55 ft | 13 kts | 129° |
| 2026-04-28 09:24 | 31.73134 | 118.87847 | 55 ft | 11 kts | 148° |
| 2026-04-28 09:25 | 31.73057 | 118.87901 | 56 ft | 13 kts | 153° |
| 2026-04-28 09:25 | 31.72986 | 118.87867 | 56 ft | 5 kts | 238° |
| 2026-04-28 09:25 | 31.72962 | 118.87820 | 56 ft | 30 kts | 238° |
| 2026-04-28 09:25 | 31.72706 | 118.87345 | 56 ft | 103 kts | 238° |
| 2026-04-28 09:26 | 31.72216 | 118.86429 | 56 ft | 160 kts | 238° |
| 2026-04-28 09:26 | 31.71600 | 118.85258 | 513 ft | 170 kts | 239° |
| 2026-04-28 09:26 | 31.70988 | 118.84080 | 1255 ft | 165 kts | 238° |
| 2026-04-28 09:26 | 31.70368 | 118.82971 | 1923 ft | 166 kts | 237° |
| 2026-04-28 09:27 | 31.69136 | 118.80622 | 3055 ft | 172 kts | 240° |
| 2026-04-28 09:27 | 31.68478 | 118.79407 | 3545 ft | 182 kts | 238° |
| 2026-04-28 09:27 | 31.67785 | 118.78075 | 3864 ft | 202 kts | 247° |
| 2026-04-28 09:28 | 31.67459 | 118.76334 | 3867 ft | 237 kts | 269° |
| 2026-04-28 09:28 | 31.67427 | 118.74302 | 4105 ft | 259 kts | 273° |
| 2026-04-28 09:28 | 31.67438 | 118.72154 | 4914 ft | 263 kts | 273° |
| 2026-04-28 09:28 | 31.67441 | 118.70016 | 5723 ft | 266 kts | 272° |
| 2026-04-28 09:29 | 31.67430 | 118.67853 | 6516 ft | 269 kts | 272° |
| 2026-04-28 09:29 | 31.67409 | 118.65640 | 7328 ft | 272 kts | 272° |
| 2026-04-28 09:29 | 31.67384 | 118.63422 | 8111 ft | 276 kts | 272° |
| 2026-04-28 09:29 | 31.67354 | 118.61138 | 8863 ft | 282 kts | 272° |
| 2026-04-28 09:30 | 31.67318 | 118.58755 | 9358 ft | 298 kts | 273° |
| 2026-04-28 09:30 | 31.67279 | 118.56325 | 9992 ft | 306 kts | 273° |
| 2026-04-28 09:30 | 31.67239 | 118.53803 | 10740 ft | 311 kts | 273° |
| 2026-04-28 09:30 | 31.67201 | 118.51199 | 11190 ft | 327 kts | 272° |
| 2026-04-28 09:31 | 31.67166 | 118.48446 | 11561 ft | 345 kts | 271° |
| 2026-04-28 09:31 | 31.67127 | 118.45541 | 11934 ft | 362 kts | 270° |
| 2026-04-28 09:31 | 31.67080 | 118.42573 | 12605 ft | 367 kts | 269° |
| 2026-04-28 09:31 | 31.67035 | 118.39594 | 13406 ft | 368 kts | 268° |
| 2026-04-28 09:32 | 31.66990 | 118.36552 | 14137 ft | 372 kts | 266° |
| 2026-04-28 09:32 | 31.66936 | 118.33515 | 14776 ft | 377 kts | 264° |
| 2026-04-28 09:32 | 31.66886 | 118.30444 | 15429 ft | 381 kts | 263° |
| 2026-04-28 09:32 | 31.66828 | 118.27336 | 16192 ft | 381 kts | 263° |
| 2026-04-28 09:33 | 31.66765 | 118.24249 | 17002 ft | 379 kts | 264° |
| 2026-04-28 09:33 | 31.66706 | 118.21177 | 17852 ft | 375 kts | 265° |
| 2026-04-28 09:33 | 31.66628 | 118.18134 | 18706 ft | 370 kts | 263° |
| 2026-04-28 09:33 | 31.66406 | 118.15131 | 19483 ft | 367 kts | 261° |
| 2026-04-28 09:34 | 31.66125 | 118.12190 | 20151 ft | 367 kts | 261° |
| 2026-04-28 09:34 | 31.65841 | 118.09219 | 20792 ft | 367 kts | 262° |
| 2026-04-28 09:34 | 31.65558 | 118.06236 | 21435 ft | 366 kts | 262° |
| 2026-04-28 09:34 | 31.65270 | 118.03252 | 22009 ft | 368 kts | 262° |
| 2026-04-28 09:35 | 31.64981 | 118.00259 | 22493 ft | 371 kts | 262° |
| 2026-04-28 09:35 | 31.64688 | 117.97217 | 22949 ft | 375 kts | 262° |
| 2026-04-28 09:35 | 31.64392 | 117.94160 | 23264 ft | 382 kts | 262° |
| 2026-04-28 09:35 | 31.64087 | 117.91016 | 23629 ft | 386 kts | 262° |
| 2026-04-28 09:36 | 31.63786 | 117.87909 | 24054 ft | 389 kts | 262° |
| 2026-04-28 09:36 | 31.63476 | 117.84718 | 24474 ft | 392 kts | 262° |
| 2026-04-28 09:36 | 31.63166 | 117.81525 | 24880 ft | 395 kts | 262° |
| 2026-04-28 09:36 | 31.62855 | 117.78343 | 25295 ft | 398 kts | 262° |
| 2026-04-28 09:37 | 31.62539 | 117.75100 | 25721 ft | 400 kts | 262° |
| 2026-04-28 09:37 | 31.62221 | 117.71852 | 26134 ft | 402 kts | 262° |
| 2026-04-28 09:37 | 31.61900 | 117.68584 | 26515 ft | 404 kts | 262° |
| 2026-04-28 09:37 | 31.61577 | 117.65318 | 26862 ft | 405 kts | 262° |
| 2026-04-28 09:38 | 31.61293 | 117.62021 | 27194 ft | 408 kts | 266° |
| 2026-04-28 09:38 | 31.61537 | 117.58657 | 27489 ft | 413 kts | 279° |
| 2026-04-28 09:38 | 31.62427 | 117.55428 | 27810 ft | 420 kts | 290° |
| 2026-04-28 09:38 | 31.63936 | 117.52422 | 28199 ft | 425 kts | 300° |
| 2026-04-28 09:39 | 31.65639 | 117.49607 | 28665 ft | 422 kts | 300° |
| 2026-04-28 09:39 | 31.67370 | 117.46772 | 29083 ft | 420 kts | 300° |
| 2026-04-28 09:39 | 31.69078 | 117.43978 | 29442 ft | 419 kts | 300° |
| 2026-04-28 09:39 | 31.70760 | 117.41196 | 29760 ft | 416 kts | 298° |
| 2026-04-28 09:40 | 31.72111 | 117.38206 | 30070 ft | 409 kts | 288° |
| 2026-04-28 09:40 | 31.72971 | 117.35047 | 30372 ft | 403 kts | 279° |
| 2026-04-28 09:40 | 31.73361 | 117.31799 | 30684 ft | 400 kts | 271° |
| 2026-04-28 09:40 | 31.73297 | 117.28593 | 31047 ft | 397 kts | 263° |
| 2026-04-28 09:41 | 31.72790 | 117.25417 | 31427 ft | 395 kts | 255° |
| 2026-04-28 09:41 | 31.71852 | 117.22384 | 31799 ft | 395 kts | 247° |
| 2026-04-28 09:41 | 31.70505 | 117.19566 | 32148 ft | 396 kts | 239° |
| 2026-04-28 09:41 | 31.68893 | 117.16932 | 32493 ft | 395 kts | 237° |
| 2026-04-28 09:42 | 31.67271 | 117.14329 | 32790 ft | 395 kts | 237° |
| 2026-04-28 09:42 | 31.65634 | 117.11729 | 33038 ft | 395 kts | 237° |
| 2026-04-28 09:42 | 31.63969 | 117.09109 | 33293 ft | 396 kts | 237° |
| 2026-04-28 09:42 | 31.62305 | 117.06505 | 33568 ft | 396 kts | 236° |
| 2026-04-28 09:43 | 31.60639 | 117.03919 | 33832 ft | 396 kts | 236° |
| 2026-04-28 09:43 | 31.58962 | 117.01378 | 34085 ft | 397 kts | 236° |
| 2026-04-28 09:43 | 31.57242 | 116.98785 | 34230 ft | 398 kts | 236° |
| 2026-04-28 09:43 | 31.55546 | 116.96226 | 34233 ft | 397 kts | 236° |
| 2026-04-28 09:44 | 31.52151 | 116.91094 | 34236 ft | 396 kts | 236° |
| 2026-04-28 09:44 | 31.48763 | 116.85978 | 34236 ft | 395 kts | 236° |
| 2026-04-28 09:45 | 31.45420 | 116.80895 | 34235 ft | 394 kts | 236° |
| 2026-04-28 09:45 | 31.42072 | 116.75764 | 34233 ft | 395 kts | 236° |
| 2026-04-28 09:46 | 31.38734 | 116.70653 | 34231 ft | 395 kts | 236° |
| 2026-04-28 09:46 | 31.35391 | 116.65540 | 34229 ft | 395 kts | 236° |
| 2026-04-28 09:47 | 31.32032 | 116.60416 | 34225 ft | 395 kts | 236° |
| 2026-04-28 09:47 | 31.28672 | 116.55308 | 34220 ft | 395 kts | 236° |
| 2026-04-28 09:48 | 31.25311 | 116.50198 | 34215 ft | 396 kts | 236° |
| 2026-04-28 09:48 | 31.21943 | 116.45079 | 34210 ft | 396 kts | 236° |
| 2026-04-28 09:49 | 31.18581 | 116.39972 | 34206 ft | 396 kts | 236° |
| 2026-04-28 09:49 | 31.15186 | 116.34815 | 34203 ft | 397 kts | 235° |
| 2026-04-28 09:50 | 31.11813 | 116.29699 | 34201 ft | 398 kts | 235° |
| 2026-04-28 09:50 | 31.08442 | 116.24599 | 34199 ft | 398 kts | 235° |
| 2026-04-28 09:51 | 31.05049 | 116.19482 | 34197 ft | 399 kts | 235° |
| 2026-04-28 09:51 | 31.01643 | 116.14348 | 34195 ft | 399 kts | 235° |
| 2026-04-28 09:52 | 30.98234 | 116.09209 | 34192 ft | 400 kts | 235° |
| 2026-04-28 09:52 | 30.94801 | 116.04038 | 34190 ft | 401 kts | 235° |
| 2026-04-28 09:53 | 30.91374 | 115.98878 | 34188 ft | 402 kts | 235° |
| 2026-04-28 09:53 | 30.87916 | 115.93682 | 34176 ft | 403 kts | 235° |
| 2026-04-28 09:54 | 30.84489 | 115.88534 | 34174 ft | 404 kts | 235° |
| 2026-04-28 09:54 | 30.81044 | 115.83315 | 34186 ft | 404 kts | 235° |
| 2026-04-28 09:55 | 30.77629 | 115.78144 | 34188 ft | 405 kts | 235° |
| 2026-04-28 09:55 | 30.74179 | 115.72924 | 34187 ft | 406 kts | 235° |
| 2026-04-28 09:56 | 30.70714 | 115.67682 | 34185 ft | 407 kts | 235° |
| 2026-04-28 09:56 | 30.67267 | 115.62473 | 34181 ft | 407 kts | 235° |
| 2026-04-28 09:57 | 30.63801 | 115.57241 | 34178 ft | 408 kts | 235° |
| 2026-04-28 09:57 | 30.60325 | 115.52001 | 34175 ft | 408 kts | 235° |
| 2026-04-28 09:58 | 30.56861 | 115.46781 | 34173 ft | 409 kts | 235° |
| 2026-04-28 09:58 | 30.53373 | 115.41534 | 34166 ft | 409 kts | 235° |
| 2026-04-28 09:59 | 30.49899 | 115.36315 | 34155 ft | 409 kts | 236° |
| 2026-04-28 09:59 | 30.46999 | 115.30660 | 34147 ft | 407 kts | 246° |
| 2026-04-28 10:00 | 30.45214 | 115.24432 | 34144 ft | 407 kts | 257° |
| 2026-04-28 10:00 | 30.44611 | 115.17920 | 34142 ft | 409 kts | 268° |
| 2026-04-28 10:01 | 30.45077 | 115.11324 | 34141 ft | 411 kts | 273° |
| 2026-04-28 10:01 | 30.45750 | 115.04744 | 34138 ft | 410 kts | 274° |
| 2026-04-28 10:02 | 30.46430 | 114.98150 | 34137 ft | 409 kts | 273° |
| 2026-04-28 10:02 | 30.47103 | 114.91598 | 34135 ft | 409 kts | 273° |
| 2026-04-28 10:03 | 30.47772 | 114.85046 | 34134 ft | 408 kts | 273° |
| 2026-04-28 10:03 | 30.48436 | 114.78517 | 34133 ft | 408 kts | 273° |
| 2026-04-28 10:04 | 30.49098 | 114.71973 | 34132 ft | 408 kts | 273° |
| 2026-04-28 10:04 | 30.49756 | 114.65434 | 34132 ft | 407 kts | 273° |
| 2026-04-28 10:05 | 30.50407 | 114.58936 | 34131 ft | 408 kts | 273° |
| 2026-04-28 10:05 | 30.51058 | 114.52406 | 34131 ft | 407 kts | 273° |
| 2026-04-28 10:06 | 30.51707 | 114.45863 | 34130 ft | 407 kts | 273° |
| 2026-04-28 10:06 | 30.52351 | 114.39334 | 34130 ft | 407 kts | 273° |
| 2026-04-28 10:07 | 30.52992 | 114.32796 | 34132 ft | 407 kts | 272° |
| 2026-04-28 10:07 | 30.53625 | 114.26325 | 34131 ft | 406 kts | 272° |
| 2026-04-28 10:08 | 30.54257 | 114.19804 | 34131 ft | 407 kts | 272° |
| 2026-04-28 10:08 | 30.54872 | 114.13274 | 34040 ft | 407 kts | 272° |
| 2026-04-28 10:09 | 30.55503 | 114.06712 | 34033 ft | 409 kts | 272° |
| 2026-04-28 10:09 | 30.56143 | 114.00110 | 34111 ft | 409 kts | 272° |
| 2026-04-28 10:10 | 30.56748 | 113.93595 | 34127 ft | 408 kts | 272° |
| 2026-04-28 10:10 | 30.57340 | 113.87027 | 34131 ft | 407 kts | 271° |
| 2026-04-28 10:11 | 30.57542 | 113.80469 | 34132 ft | 405 kts | 266° |
| 2026-04-28 10:11 | 30.57338 | 113.73974 | 34191 ft | 404 kts | 265° |
| 2026-04-28 10:12 | 30.57102 | 113.67440 | 34205 ft | 403 kts | 265° |
| 2026-04-28 10:12 | 30.56860 | 113.60925 | 34145 ft | 403 kts | 265° |
| 2026-04-28 10:13 | 30.56614 | 113.54424 | 34133 ft | 403 kts | 265° |
| 2026-04-28 10:13 | 30.56365 | 113.47927 | 34130 ft | 404 kts | 265° |
| 2026-04-28 10:14 | 30.56112 | 113.41396 | 34129 ft | 404 kts | 265° |
| 2026-04-28 10:14 | 30.55856 | 113.34917 | 34133 ft | 404 kts | 264° |
| 2026-04-28 10:15 | 30.55597 | 113.28402 | 34144 ft | 404 kts | 264° |
| 2026-04-28 10:15 | 30.55334 | 113.21856 | 34148 ft | 404 kts | 264° |
| 2026-04-28 10:16 | 30.55067 | 113.15344 | 34148 ft | 404 kts | 264° |
| 2026-04-28 10:16 | 30.54796 | 113.08818 | 34145 ft | 404 kts | 264° |
| 2026-04-28 10:17 | 30.54524 | 113.02286 | 34141 ft | 404 kts | 264° |
| 2026-04-28 10:17 | 30.54252 | 112.95789 | 34137 ft | 404 kts | 264° |
| 2026-04-28 10:18 | 30.53972 | 112.89243 | 34134 ft | 404 kts | 264° |
| 2026-04-28 10:18 | 30.53686 | 112.82734 | 34132 ft | 404 kts | 264° |
| 2026-04-28 10:19 | 30.53399 | 112.76235 | 34129 ft | 405 kts | 264° |
| 2026-04-28 10:19 | 30.53108 | 112.69699 | 34126 ft | 405 kts | 264° |
| 2026-04-28 10:20 | 30.52816 | 112.63172 | 34123 ft | 405 kts | 264° |
| 2026-04-28 10:20 | 30.52520 | 112.56581 | 34121 ft | 405 kts | 264° |
| 2026-04-28 10:21 | 30.52222 | 112.50047 | 34118 ft | 405 kts | 264° |
| 2026-04-28 10:21 | 30.51921 | 112.43542 | 34116 ft | 405 kts | 264° |
| 2026-04-28 10:22 | 30.51616 | 112.37026 | 34113 ft | 405 kts | 264° |
| 2026-04-28 10:22 | 30.51306 | 112.30456 | 34112 ft | 406 kts | 263° |
| 2026-04-28 10:23 | 30.50993 | 112.23895 | 34109 ft | 406 kts | 263° |
| 2026-04-28 10:23 | 30.50678 | 112.17361 | 34106 ft | 406 kts | 263° |
| 2026-04-28 10:24 | 30.50358 | 112.10778 | 34104 ft | 407 kts | 263° |
| 2026-04-28 10:24 | 30.50037 | 112.04266 | 34102 ft | 407 kts | 263° |
| 2026-04-28 10:25 | 30.49712 | 111.97688 | 34095 ft | 406 kts | 263° |
| 2026-04-28 10:25 | 30.49427 | 111.91894 | 34081 ft | 407 kts | 263° |
| 2026-04-28 10:26 | 30.49098 | 111.85330 | 34076 ft | 407 kts | 263° |
| 2026-04-28 10:26 | 30.48764 | 111.78772 | 34088 ft | 407 kts | 263° |
| 2026-04-28 10:27 | 30.48424 | 111.72199 | 34088 ft | 407 kts | 263° |
| 2026-04-28 10:27 | 30.48074 | 111.65585 | 34091 ft | 407 kts | 263° |
| 2026-04-28 10:28 | 30.47723 | 111.59031 | 34099 ft | 407 kts | 263° |
| 2026-04-28 10:29 | 30.47138 | 111.49159 | 34104 ft | 406 kts | 261° |
| 2026-04-28 10:29 | 30.46341 | 111.42672 | 34105 ft | 405 kts | 259° |
| 2026-04-28 10:30 | 30.45460 | 111.36178 | 34106 ft | 405 kts | 259° |
| 2026-04-28 10:30 | 30.44952 | 111.29613 | 34107 ft | 408 kts | 265° |
| 2026-04-28 10:31 | 30.45183 | 111.23002 | 34107 ft | 412 kts | 271° |
| 2026-04-28 10:31 | 30.46091 | 111.16374 | 34108 ft | 416 kts | 277° |
| 2026-04-28 10:32 | 30.47580 | 111.09869 | 34109 ft | 418 kts | 280° |
| 2026-04-28 10:32 | 30.49175 | 111.03345 | 34110 ft | 418 kts | 280° |
| 2026-04-28 10:33 | 30.50760 | 110.96856 | 34113 ft | 418 kts | 280° |
| 2026-04-28 10:33 | 30.52350 | 110.90322 | 34114 ft | 418 kts | 280° |
| 2026-04-28 10:34 | 30.53930 | 110.83815 | 34115 ft | 419 kts | 280° |
| 2026-04-28 10:34 | 30.55508 | 110.77299 | 34117 ft | 419 kts | 281° |
| 2026-04-28 10:35 | 30.57089 | 110.70758 | 34118 ft | 419 kts | 280° |
| 2026-04-28 10:35 | 30.58660 | 110.64233 | 34119 ft | 419 kts | 280° |
| 2026-04-28 10:36 | 30.60229 | 110.57707 | 34120 ft | 419 kts | 280° |
| 2026-04-28 10:36 | 30.61794 | 110.51186 | 34121 ft | 419 kts | 280° |
| 2026-04-28 10:37 | 30.63358 | 110.44650 | 34122 ft | 419 kts | 280° |
| 2026-04-28 10:37 | 30.64922 | 110.38102 | 34123 ft | 419 kts | 280° |
| 2026-04-28 10:38 | 30.66474 | 110.31587 | 34125 ft | 419 kts | 280° |
| 2026-04-28 10:38 | 30.68023 | 110.25066 | 34125 ft | 419 kts | 280° |
| 2026-04-28 10:39 | 30.69571 | 110.18541 | 34125 ft | 418 kts | 280° |
| 2026-04-28 10:39 | 30.71120 | 110.11990 | 34133 ft | 418 kts | 280° |
| 2026-04-28 10:40 | 30.72664 | 110.05447 | 34157 ft | 418 kts | 280° |
| 2026-04-28 10:40 | 30.74202 | 109.98911 | 34173 ft | 418 kts | 280° |
| 2026-04-28 10:41 | 30.75749 | 109.92323 | 34160 ft | 418 kts | 280° |
| 2026-04-28 10:41 | 30.77276 | 109.85800 | 34191 ft | 418 kts | 280° |
| 2026-04-28 10:42 | 30.78807 | 109.79244 | 34211 ft | 419 kts | 280° |
| 2026-04-28 10:42 | 30.80329 | 109.72710 | 34161 ft | 419 kts | 280° |
| 2026-04-28 10:43 | 30.81852 | 109.66173 | 34142 ft | 419 kts | 280° |
| 2026-04-28 10:43 | 30.83383 | 109.59570 | 33879 ft | 419 kts | 280° |
| 2026-04-28 10:43 | 30.84138 | 109.56308 | 33631 ft | 416 kts | 280° |
| 2026-04-28 10:44 | 30.84890 | 109.53052 | 33382 ft | 414 kts | 280° |
| 2026-04-28 10:44 | 30.85639 | 109.49798 | 33132 ft | 411 kts | 280° |
| 2026-04-28 10:44 | 30.86383 | 109.46560 | 32883 ft | 410 kts | 280° |
| 2026-04-28 10:44 | 30.87132 | 109.43298 | 32632 ft | 411 kts | 280° |
| 2026-04-28 10:45 | 30.87859 | 109.40106 | 32386 ft | 411 kts | 279° |
| 2026-04-28 10:45 | 30.88456 | 109.36843 | 32137 ft | 409 kts | 276° |
| 2026-04-28 10:45 | 30.88850 | 109.33553 | 31890 ft | 408 kts | 271° |
| 2026-04-28 10:45 | 30.89041 | 109.30334 | 31648 ft | 406 kts | 268° |
| 2026-04-28 10:46 | 30.89062 | 109.27065 | 31405 ft | 407 kts | 266° |
| 2026-04-28 10:46 | 30.89044 | 109.23740 | 31156 ft | 407 kts | 266° |
| 2026-04-28 10:46 | 30.89020 | 109.20469 | 30914 ft | 408 kts | 266° |
| 2026-04-28 10:46 | 30.88995 | 109.17152 | 30669 ft | 410 kts | 266° |
| 2026-04-28 10:47 | 30.88969 | 109.13799 | 30422 ft | 411 kts | 266° |
| 2026-04-28 10:47 | 30.88942 | 109.10497 | 30179 ft | 412 kts | 266° |
| 2026-04-28 10:47 | 30.88915 | 109.07143 | 29934 ft | 413 kts | 266° |
| 2026-04-28 10:47 | 30.88886 | 109.03764 | 29688 ft | 414 kts | 266° |
| 2026-04-28 10:48 | 30.88857 | 109.00425 | 29446 ft | 415 kts | 266° |
| 2026-04-28 10:48 | 30.88826 | 108.97041 | 29201 ft | 417 kts | 266° |
| 2026-04-28 10:48 | 30.88795 | 108.93636 | 28957 ft | 418 kts | 266° |
| 2026-04-28 10:48 | 30.88763 | 108.90220 | 28712 ft | 418 kts | 266° |
| 2026-04-28 10:49 | 30.88731 | 108.86860 | 28471 ft | 419 kts | 266° |
| 2026-04-28 10:49 | 30.88697 | 108.83471 | 28230 ft | 420 kts | 266° |
| 2026-04-28 10:49 | 30.88662 | 108.80039 | 27985 ft | 421 kts | 266° |
| 2026-04-28 10:49 | 30.88627 | 108.76642 | 27744 ft | 423 kts | 266° |
| 2026-04-28 10:50 | 30.88591 | 108.73192 | 27499 ft | 422 kts | 266° |
| 2026-04-28 10:50 | 30.88566 | 108.70913 | 27338 ft | 422 kts | 266° |
| 2026-04-28 10:50 | 30.88516 | 108.66319 | 27013 ft | 420 kts | 266° |
| 2026-04-28 10:50 | 30.88477 | 108.62917 | 26770 ft | 419 kts | 266° |
| 2026-04-28 10:51 | 30.88437 | 108.59516 | 26527 ft | 418 kts | 266° |
| 2026-04-28 10:51 | 30.88397 | 108.56119 | 26284 ft | 417 kts | 266° |
| 2026-04-28 10:51 | 30.88355 | 108.52682 | 26037 ft | 416 kts | 266° |
| 2026-04-28 10:51 | 30.88313 | 108.49314 | 25795 ft | 415 kts | 266° |
| 2026-04-28 10:52 | 30.88270 | 108.45932 | 25549 ft | 414 kts | 266° |
| 2026-04-28 10:52 | 30.88226 | 108.42535 | 25299 ft | 413 kts | 266° |
| 2026-04-28 10:52 | 30.88181 | 108.39196 | 24935 ft | 411 kts | 266° |
| 2026-04-28 10:52 | 30.88136 | 108.35869 | 24567 ft | 409 kts | 266° |
| 2026-04-28 10:53 | 30.88092 | 108.32668 | 24212 ft | 407 kts | 266° |
| 2026-04-28 10:53 | 30.88045 | 108.29316 | 23836 ft | 405 kts | 266° |
| 2026-04-28 10:53 | 30.87999 | 108.26072 | 23469 ft | 403 kts | 266° |
| 2026-04-28 10:53 | 30.87951 | 108.22782 | 23095 ft | 401 kts | 266° |
| 2026-04-28 10:54 | 30.87903 | 108.19531 | 22722 ft | 399 kts | 266° |
| 2026-04-28 10:54 | 30.87853 | 108.16279 | 22346 ft | 397 kts | 266° |
| 2026-04-28 10:54 | 30.87804 | 108.13090 | 21974 ft | 395 kts | 266° |
| 2026-04-28 10:54 | 30.87754 | 108.09884 | 21599 ft | 393 kts | 266° |
| 2026-04-28 10:55 | 30.87702 | 108.06672 | 21220 ft | 391 kts | 266° |
| 2026-04-28 10:55 | 30.87651 | 108.03498 | 20843 ft | 389 kts | 266° |
| 2026-04-28 10:55 | 30.87600 | 108.00351 | 20466 ft | 388 kts | 266° |
| 2026-04-28 10:55 | 30.87548 | 107.97232 | 20091 ft | 386 kts | 267° |
| 2026-04-28 10:56 | 30.87496 | 107.94102 | 19712 ft | 384 kts | 267° |
| 2026-04-28 10:56 | 30.87443 | 107.90970 | 19241 ft | 382 kts | 267° |
| 2026-04-28 10:56 | 30.87389 | 107.87865 | 18749 ft | 381 kts | 267° |
| 2026-04-28 10:56 | 30.87335 | 107.84769 | 18260 ft | 380 kts | 268° |
| 2026-04-28 10:57 | 30.87180 | 107.81701 | 17769 ft | 378 kts | 259° |
| 2026-04-28 10:57 | 30.86286 | 107.78838 | 17371 ft | 376 kts | 241° |
| 2026-04-28 10:57 | 30.84652 | 107.76455 | 16995 ft | 377 kts | 224° |
| 2026-04-28 10:57 | 30.82607 | 107.74470 | 16623 ft | 377 kts | 221° |
| 2026-04-28 10:58 | 30.80581 | 107.72552 | 16250 ft | 376 kts | 221° |
| 2026-04-28 10:58 | 30.78520 | 107.70596 | 15869 ft | 375 kts | 221° |
| 2026-04-28 10:58 | 30.76475 | 107.68648 | 15489 ft | 374 kts | 221° |
| 2026-04-28 10:58 | 30.74470 | 107.66734 | 15115 ft | 373 kts | 221° |
| 2026-04-28 10:59 | 30.72476 | 107.64830 | 14742 ft | 371 kts | 221° |
| 2026-04-28 10:59 | 30.70470 | 107.62915 | 14365 ft | 370 kts | 220° |
| 2026-04-28 10:59 | 30.68475 | 107.61009 | 13988 ft | 368 kts | 220° |
| 2026-04-28 10:59 | 30.66480 | 107.59104 | 13610 ft | 367 kts | 220° |
| 2026-04-28 11:00 | 30.64509 | 107.57224 | 13235 ft | 365 kts | 220° |
| 2026-04-28 11:00 | 30.62535 | 107.55341 | 12859 ft | 363 kts | 220° |
| 2026-04-28 11:00 | 30.60571 | 107.53468 | 12481 ft | 362 kts | 220° |
| 2026-04-28 11:00 | 30.58604 | 107.51593 | 12098 ft | 361 kts | 219° |
| 2026-04-28 11:01 | 30.56676 | 107.49757 | 11862 ft | 359 kts | 220° |
| 2026-04-28 11:01 | 30.54726 | 107.47903 | 11850 ft | 360 kts | 219° |
| 2026-04-28 11:01 | 30.52766 | 107.46043 | 11851 ft | 361 kts | 219° |
| 2026-04-28 11:01 | 30.50761 | 107.44250 | 11853 ft | 362 kts | 217° |
| 2026-04-28 11:02 | 30.48711 | 107.42534 | 11738 ft | 362 kts | 216° |
| 2026-04-28 11:02 | 30.46648 | 107.40807 | 11484 ft | 360 kts | 216° |
| 2026-04-28 11:02 | 30.44615 | 107.39105 | 11230 ft | 359 kts | 216° |
| 2026-04-28 11:02 | 30.42599 | 107.37418 | 10980 ft | 357 kts | 216° |
| 2026-04-28 11:03 | 30.40588 | 107.35737 | 10731 ft | 355 kts | 216° |
| 2026-04-28 11:03 | 30.38603 | 107.34074 | 10420 ft | 337 kts | 217° |
| 2026-04-28 11:03 | 30.36721 | 107.32492 | 10128 ft | 310 kts | 214° |
| 2026-04-28 11:03 | 30.35036 | 107.31076 | 9901 ft | 289 kts | 214° |
| 2026-04-28 11:04 | 30.33380 | 107.29697 | 9776 ft | 289 kts | 215° |
| 2026-04-28 11:04 | 30.31752 | 107.28340 | 9653 ft | 289 kts | 214° |
| 2026-04-28 11:04 | 30.30095 | 107.26955 | 9521 ft | 292 kts | 214° |
| 2026-04-28 11:04 | 30.28460 | 107.25592 | 9393 ft | 293 kts | 214° |
| 2026-04-28 11:05 | 30.26787 | 107.24196 | 9267 ft | 294 kts | 214° |
| 2026-04-28 11:05 | 30.25096 | 107.22789 | 9135 ft | 294 kts | 214° |
| 2026-04-28 11:05 | 30.23422 | 107.21393 | 9008 ft | 295 kts | 214° |
| 2026-04-28 11:05 | 30.21755 | 107.20003 | 8878 ft | 294 kts | 214° |
| 2026-04-28 11:06 | 30.20090 | 107.18613 | 8733 ft | 295 kts | 215° |
| 2026-04-28 11:06 | 30.18408 | 107.17218 | 8612 ft | 296 kts | 214° |
| 2026-04-28 11:06 | 30.16729 | 107.15820 | 8474 ft | 294 kts | 216° |
| 2026-04-28 11:06 | 30.15049 | 107.14429 | 8341 ft | 295 kts | 213° |
| 2026-04-28 11:07 | 30.13374 | 107.13037 | 8216 ft | 295 kts | 213° |
| 2026-04-28 11:07 | 30.11684 | 107.11636 | 8090 ft | 295 kts | 214° |
| 2026-04-28 11:07 | 30.10003 | 107.10245 | 7961 ft | 295 kts | 215° |
| 2026-04-28 11:07 | 30.08326 | 107.08859 | 7833 ft | 294 kts | 214° |
| 2026-04-28 11:08 | 30.06641 | 107.07461 | 7705 ft | 295 kts | 214° |
| 2026-04-28 11:08 | 30.04964 | 107.06065 | 7576 ft | 293 kts | 214° |
| 2026-04-28 11:08 | 30.03312 | 107.04697 | 7445 ft | 292 kts | 214° |
| 2026-04-28 11:08 | 30.01642 | 107.03320 | 7322 ft | 292 kts | 214° |
| 2026-04-28 11:09 | 30.00000 | 107.01961 | 7186 ft | 291 kts | 215° |
| 2026-04-28 11:09 | 29.98338 | 107.00584 | 7064 ft | 292 kts | 214° |
| 2026-04-28 11:09 | 29.96669 | 106.99204 | 6935 ft | 292 kts | 215° |
| 2026-04-28 11:09 | 29.95003 | 106.97826 | 6801 ft | 292 kts | 215° |
| 2026-04-28 11:10 | 29.93353 | 106.96458 | 6673 ft | 291 kts | 214° |
| 2026-04-28 11:10 | 29.91698 | 106.95094 | 6545 ft | 290 kts | 215° |
| 2026-04-28 11:10 | 29.90057 | 106.93737 | 6419 ft | 288 kts | 214° |
| 2026-04-28 11:10 | 29.88430 | 106.92399 | 6292 ft | 288 kts | 214° |
| 2026-04-28 11:11 | 29.86763 | 106.91026 | 6159 ft | 288 kts | 215° |
| 2026-04-28 11:11 | 29.85122 | 106.89673 | 6030 ft | 286 kts | 215° |
| 2026-04-28 11:11 | 29.83513 | 106.88343 | 5916 ft | 286 kts | 216° |
| 2026-04-28 11:11 | 29.81881 | 106.86996 | 5914 ft | 286 kts | 216° |
| 2026-04-28 11:12 | 29.80261 | 106.85659 | 5911 ft | 285 kts | 215° |
| 2026-04-28 11:12 | 29.78606 | 106.84297 | 5905 ft | 285 kts | 216° |
| 2026-04-28 11:12 | 29.77013 | 106.82983 | 5900 ft | 286 kts | 215° |
| 2026-04-28 11:12 | 29.75315 | 106.81591 | 5896 ft | 287 kts | 216° |
| 2026-04-28 11:13 | 29.73676 | 106.80241 | 5898 ft | 288 kts | 213° |
| 2026-04-28 11:13 | 29.71982 | 106.78996 | 5892 ft | 286 kts | 208° |
| 2026-04-28 11:13 | 29.70194 | 106.77977 | 5894 ft | 286 kts | 202° |
| 2026-04-28 11:13 | 29.68314 | 106.77187 | 5897 ft | 286 kts | 195° |
| 2026-04-28 11:14 | 29.66411 | 106.76525 | 5892 ft | 286 kts | 195° |
| 2026-04-28 11:14 | 29.64481 | 106.75876 | 5896 ft | 286 kts | 196° |
| 2026-04-28 11:14 | 29.62934 | 106.75348 | 5892 ft | 287 kts | 195° |
| 2026-04-28 11:14 | 29.60978 | 106.74680 | 5889 ft | 287 kts | 196° |
| 2026-04-28 11:15 | 29.59096 | 106.74030 | 5897 ft | 285 kts | 195° |
| 2026-04-28 11:15 | 29.57171 | 106.73362 | 5895 ft | 285 kts | 194° |
| 2026-04-28 11:15 | 29.55245 | 106.72693 | 5905 ft | 286 kts | 195° |
| 2026-04-28 11:15 | 29.53351 | 106.72041 | 5896 ft | 286 kts | 195° |
| 2026-04-28 11:16 | 29.51434 | 106.71373 | 5909 ft | 285 kts | 197° |
| 2026-04-28 11:16 | 29.49537 | 106.70716 | 5911 ft | 276 kts | 195° |
| 2026-04-28 11:16 | 29.47707 | 106.70084 | 5749 ft | 267 kts | 195° |
| 2026-04-28 11:16 | 29.45970 | 106.69482 | 5544 ft | 257 kts | 197° |
| 2026-04-28 11:17 | 29.44285 | 106.68902 | 5262 ft | 248 kts | 197° |
| 2026-04-28 11:17 | 29.42642 | 106.68343 | 5045 ft | 240 kts | 196° |
| 2026-04-28 11:17 | 29.41060 | 106.67728 | 4770 ft | 237 kts | 209° |
| 2026-04-28 11:17 | 29.39939 | 106.66425 | 4565 ft | 224 kts | 253° |
| 2026-04-28 11:18 | 29.39712 | 106.64703 | 4414 ft | 211 kts | 274° |
| 2026-04-28 11:18 | 29.39736 | 106.63058 | 4345 ft | 195 kts | 274° |
| 2026-04-28 11:18 | 29.39731 | 106.61546 | 4132 ft | 189 kts | 272° |
| 2026-04-28 11:18 | 29.39670 | 106.60017 | 3930 ft | 191 kts | 269° |
| 2026-04-28 11:19 | 29.39566 | 106.58488 | 3931 ft | 194 kts | 268° |
| 2026-04-28 11:19 | 29.39437 | 106.56933 | 3927 ft | 195 kts | 269° |
| 2026-04-28 11:19 | 29.39606 | 106.55411 | 3914 ft | 190 kts | 298° |
| 2026-04-28 11:19 | 29.40482 | 106.54333 | 3914 ft | 183 kts | 337° |
| 2026-04-28 11:20 | 29.41712 | 106.54063 | 3935 ft | 180 kts | 2° |
| 2026-04-28 11:20 | 29.42957 | 106.54243 | 3932 ft | 179 kts | 13° |
| 2026-04-28 11:20 | 29.44175 | 106.54594 | 3926 ft | 178 kts | 17° |
| 2026-04-28 11:20 | 29.45384 | 106.54990 | 3925 ft | 178 kts | 17° |
| 2026-04-28 11:21 | 29.46585 | 106.55395 | 3925 ft | 178 kts | 18° |
| 2026-04-28 11:21 | 29.47773 | 106.55801 | 3925 ft | 178 kts | 18° |
| 2026-04-28 11:21 | 29.48971 | 106.56216 | 3924 ft | 178 kts | 17° |
| 2026-04-28 11:21 | 29.50172 | 106.56629 | 3922 ft | 178 kts | 18° |
| 2026-04-28 11:22 | 29.51332 | 106.57029 | 3924 ft | 178 kts | 18° |
| 2026-04-28 11:22 | 29.52520 | 106.57439 | 3925 ft | 178 kts | 18° |
| 2026-04-28 11:22 | 29.53723 | 106.57860 | 3925 ft | 178 kts | 18° |
| 2026-04-28 11:22 | 29.54913 | 106.58273 | 3923 ft | 177 kts | 18° |
| 2026-04-28 11:23 | 29.56048 | 106.58665 | 3899 ft | 160 kts | 18° |
| 2026-04-28 11:23 | 29.57061 | 106.59016 | 3880 ft | 144 kts | 18° |
| 2026-04-28 11:23 | 29.58030 | 106.59354 | 3877 ft | 143 kts | 18° |
| 2026-04-28 11:23 | 29.58961 | 106.59676 | 3697 ft | 134 kts | 18° |
| 2026-04-28 11:24 | 29.59852 | 106.59984 | 3515 ft | 132 kts | 18° |
| 2026-04-28 11:24 | 29.60738 | 106.60291 | 3344 ft | 131 kts | 18° |
| 2026-04-28 11:24 | 29.61623 | 106.60597 | 3172 ft | 130 kts | 17° |
| 2026-04-28 11:24 | 29.62504 | 106.60901 | 2996 ft | 130 kts | 17° |
| 2026-04-28 11:25 | 29.63380 | 106.61203 | 2825 ft | 130 kts | 17° |
| 2026-04-28 11:25 | 29.64240 | 106.61502 | 2654 ft | 129 kts | 18° |
| 2026-04-28 11:25 | 29.65114 | 106.61806 | 2480 ft | 129 kts | 17° |
| 2026-04-28 11:25 | 29.65974 | 106.62103 | 2306 ft | 129 kts | 17° |
| 2026-04-28 11:26 | 29.66837 | 106.62402 | 2134 ft | 128 kts | 17° |
| 2026-04-28 11:26 | 29.67701 | 106.62701 | 1957 ft | 128 kts | 16° |
| 2026-04-28 11:26 | 29.68557 | 106.62997 | 1787 ft | 127 kts | 15° |
| 2026-04-28 11:26 | 29.69423 | 106.63296 | 1609 ft | 128 kts | 15° |
| 2026-04-28 11:27 | 29.70284 | 106.63597 | 1442 ft | 128 kts | 15° |
| 2026-04-28 11:27 | 29.71094 | 106.63872 | 1369 ft | 100 kts | 15° |
| 2026-04-28 11:27 | 29.71600 | 106.64050 | 1369 ft | 50 kts | 15° |
| 2026-04-28 11:27 | 29.71855 | 106.64136 | 1369 ft | 33 kts | 19° |
| 2026-04-28 11:28 | 29.72052 | 106.64258 | 1369 ft | 26 kts | 40° |
| 2026-04-28 11:28 | 29.72141 | 106.64362 | 1369 ft | 14 kts | 44° |
| 2026-04-28 11:28 | 29.72207 | 106.64439 | 1369 ft | 11 kts | 51° |
| 2026-04-28 11:28 | 29.72208 | 106.64516 | 1369 ft | 10 kts | 107° |
| 2026-04-28 11:29 | 29.72201 | 106.64544 | 1369 ft | 0 kts | 106° |
| 2026-04-28 11:29 | 29.72199 | 106.64550 | 1369 ft | 2 kts | 107° |
| 2026-04-28 11:29 | 29.72192 | 106.64578 | 1369 ft | 4 kts | 107° |
| 2026-04-28 11:29 | 29.72180 | 106.64625 | 1369 ft | 7 kts | 107° |
| 2026-04-28 11:30 | 29.72163 | 106.64691 | 1369 ft | 9 kts | 107° |
| 2026-04-28 11:30 | 29.72090 | 106.64825 | 1369 ft | 11 kts | 184° |
| 2026-04-28 11:30 | 29.72005 | 106.64802 | 1369 ft | 13 kts | 196° |
| 2026-04-28 11:31 | 29.71913 | 106.64770 | 1369 ft | 14 kts | 197° |
| 2026-04-28 11:31 | 29.71814 | 106.64735 | 1369 ft | 15 kts | 197° |
| 2026-04-28 11:31 | 29.71703 | 106.64697 | 1369 ft | 16 kts | 197° |
| 2026-04-28 11:31 | 29.71588 | 106.64657 | 1369 ft | 16 kts | 197° |
| 2026-04-28 11:32 | 29.71512 | 106.64631 | 1369 ft | 9 kts | 197° |
| 2026-04-28 11:32 | 29.71441 | 106.64606 | 1369 ft | 11 kts | 197° |
| 2026-04-28 11:32 | 29.71384 | 106.64619 | 1369 ft | 6 kts | 118° |
| 2026-04-28 11:32 | 29.71361 | 106.64659 | 1369 ft | 3 kts | 180° |
| 2026-04-28 11:33 | 29.71324 | 106.64651 | 1369 ft | 6 kts | 196° |
| 2026-04-28 11:33 | 29.71271 | 106.64632 | 1369 ft | 8 kts | 198° |
| 2026-04-28 11:33 | 29.71219 | 106.64623 | 1369 ft | 7 kts | 163° |
| 2026-04-28 11:33 | 29.71180 | 106.64664 | 1369 ft | 8 kts | 130° |
| 2026-04-28 11:34 | 29.71152 | 106.64703 | 1369 ft | 6 kts | 130° |
| 2026-04-28 11:34 | 29.71136 | 106.64725 | 1369 ft | 2 kts | 130° |
| 2026-04-28 11:34 | 29.71129 | 106.64734 | 1369 ft | 0 kts | 130° |